Sevierville, TN

5:06 PM EST on January 18, 2017 (GMT -0500)
Douglas Dam | | Change Station

Elev 1191 ft 35.98 °N, 83.54 °W | Updated 55 seconds ago

Clear
Clear
56.3 °F
Feels Like 56.3 °F
N
0.0
Wind Variable Wind from West
Gusts 0.0 mph

Today
High -- | Low -- °F
--% Chance of Precip.
Yesterday
High -- | Low -- °F
Precip. -- in
Pressure 30.09 in
Visibility 10.0 miles
Clouds Scattered Clouds 18000 ft
Overcast 25000 ft
Dew Point 36 °F
Humidity 46%
Rainfall 0.04 in
Snow Depth Not available.
7:42 AM 5:46 PM
Waning Gibbous, 60% visible
METAR KTYS 182153Z 00000KT 10SM SCT180 OVC250 15/04 A3010 RMK AO2 SLP189 T01500044 $
Pressure 30.09 in
Visibility 10.0 miles
Clouds Scattered Clouds 18000 ft
Overcast 25000 ft
Dew Point 36 °F
Humidity 46%
Rainfall 0.04 in
Snow Depth Not available.
7:42 AM 5:46 PM
Waning Gibbous, 60% visible
METAR KTYS 182153Z 00000KT 10SM SCT180 OVC250 15/04 A3010 RMK AO2 SLP189 T01500044 $

Get Your Daily Forecast Email!

Thanks for signing up!

Be on the lookout for a verification email in your inbox.

You'll start receiving the daily forecast at 8 AM.

×

10-Day Weather Forecast

Almanac

Astronomy

Jan. 18, 2017 Rise Set
Actual Time
Civil Twilight
Nautical Twilight
Astronomical Twilight
Moon
Length of Visible Light
Length of Day
Tomorrow will be .
, % of the Moon is Illuminated

Today's Extremes

State Highs State Lows

Community

WunderPhotos

Upload Photos

1,962,540 photos uploaded!

WunderBlog® & News

Nearby

Air Quality

  Air Quality AQ Index Pollutant
Not available.

Snow Depth

Station Depth Elevation

Earthquake Activity

City Distance Mag. Time & Date
Minimum magnitude displayed is 2.5.

Coastal Water Temperatures

Place Temperature

Stations

Nearby Weather Stations

Station Location Temp. Windchill Dew Point Humidity Wind Precip. Elev Updated Type
                   

Watches & Warnings

There are currently no watches in effect.